sensor_id;sensor_type;location;lat;lon;timestamp;temperature;humidity
47813;DHT22;34221;45.296;9.516;2023-12-20T00:00:04;4.00;99.90
47813;DHT22;34221;45.296;9.516;2023-12-20T00:00:21;4.10;99.90
47813;DHT22;34221;45.296;9.516;2023-12-20T00:00:36;4.10;99.90
47813;DHT22;34221;45.296;9.516;2023-12-20T00:00:54;4.10;99.90
47813;DHT22;34221;45.296;9.516;2023-12-20T00:01:09;4.10;99.90
47813;DHT22;34221;45.296;9.516;2023-12-20T00:01:24;4.20;99.90
47813;DHT22;34221;45.296;9.516;2023-12-20T00:01:39;4.10;99.90
47813;DHT22;34221;45.296;9.516;2023-12-20T00:01:54;4.10;99.90
47813;DHT22;34221;45.296;9.516;2023-12-20T00:02:09;4.10;99.90
47813;DHT22;34221;45.296;9.516;2023-12-20T00:02:24;4.00;99.90
47813;DHT22;34221;45.296;9.516;2023-12-20T00:02:59;4.10;99.90
47813;DHT22;34221;45.296;9.516;2023-12-20T00:03:14;4.10;99.90
47813;DHT22;34221;45.296;9.516;2023-12-20T00:03:29;4.10;99.90
47813;DHT22;34221;45.296;9.516;2023-12-20T00:03:44;4.00;99.90
47813;DHT22;34221;45.296;9.516;2023-12-20T00:03:59;4.00;99.90
47813;DHT22;34221;45.296;9.516;2023-12-20T00:04:14;4.00;99.90
47813;DHT22;34221;45.296;9.516;2023-12-20T00:04:29;4.00;99.90
47813;DHT22;34221;45.296;9.516;2023-12-20T00:04:44;4.00;99.90
47813;DHT22;34221;45.296;9.516;2023-12-20T00:04:58;3.90;99.90
47813;DHT22;34221;45.296;9.516;2023-12-20T00:05:14;3.90;99.90
47813;DHT22;34221;45.296;9.516;2023-12-20T00:05:29;3.90;99.90
47813;DHT22;34221;45.296;9.516;2023-12-20T00:05:44;3.90;99.90
47813;DHT22;34221;45.296;9.516;2023-12-20T00:05:59;3.90;99.90
47813;DHT22;34221;45.296;9.516;2023-12-20T00:06:14;3.90;99.90
47813;DHT22;34221;45.296;9.516;2023-12-20T00:06:30;3.80;99.90
47813;DHT22;34221;45.296;9.516;2023-12-20T00:06:45;3.90;99.90
47813;DHT22;34221;45.296;9.516;2023-12-20T00:07:00;3.80;99.90
47813;DHT22;34221;45.296;9.516;2023-12-20T00:07:16;3.80;99.90
47813;DHT22;34221;45.296;9.516;2023-12-20T00:07:31;3.80;99.90
47813;DHT22;34221;45.296;9.516;2023-12-20T00:07:46;3.80;99.90
47813;DHT22;34221;45.296;9.516;2023-12-20T00:08:00;3.80;99.90
47813;DHT22;34221;45.296;9.516;2023-12-20T00:08:16;3.80;99.90
47813;DHT22;34221;45.296;9.516;2023-12-20T00:08:31;3.80;99.90
47813;DHT22;34221;45.296;9.516;2023-12-20T00:08:46;3.80;99.90
47813;DHT22;34221;45.296;9.516;2023-12-20T00:09:01;3.70;99.90
47813;DHT22;34221;45.296;9.516;2023-12-20T00:09:16;3.80;99.90
47813;DHT22;34221;45.296;9.516;2023-12-20T00:09:31;3.80;99.90
47813;DHT22;34221;45.296;9.516;2023-12-20T00:09:46;3.80;99.90
47813;DHT22;34221;45.296;9.516;2023-12-20T00:10:01;3.80;99.90
47813;DHT22;34221;45.296;9.516;2023-12-20T00:10:16;3.80;99.90
47813;DHT22;34221;45.296;9.516;2023-12-20T00:10:31;3.80;99.90
47813;DHT22;34221;45.296;9.516;2023-12-20T00:10:46;3.80;99.90
47813;DHT22;34221;45.296;9.516;2023-12-20T00:11:01;3.90;99.90
47813;DHT22;34221;45.296;9.516;2023-12-20T00:11:16;3.80;99.90
47813;DHT22;34221;45.296;9.516;2023-12-20T00:11:31;3.90;99.90
47813;DHT22;34221;45.296;9.516;2023-12-20T00:11:46;3.90;99.90
47813;DHT22;34221;45.296;9.516;2023-12-20T00:12:01;3.90;99.90
47813;DHT22;34221;45.296;9.516;2023-12-20T00:12:15;3.90;99.90
47813;DHT22;34221;45.296;9.516;2023-12-20T00:12:30;3.90;99.90
47813;DHT22;34221;45.296;9.516;2023-12-20T00:12:45;3.90;99.90
47813;DHT22;34221;45.296;9.516;2023-12-20T00:13:00;3.80;99.90
47813;DHT22;34221;45.296;9.516;2023-12-20T00:13:15;3.80;99.90
47813;DHT22;34221;45.296;9.516;2023-12-20T00:13:30;3.80;99.90
47813;DHT22;34221;45.296;9.516;2023-12-20T00:13:45;3.80;99.90
47813;DHT22;34221;45.296;9.516;2023-12-20T00:14:00;3.80;99.90
47813;DHT22;34221;45.296;9.516;2023-12-20T00:14:15;3.70;99.90
47813;DHT22;34221;45.296;9.516;2023-12-20T00:14:30;3.70;99.90
47813;DHT22;34221;45.296;9.516;2023-12-20T00:14:45;3.70;99.90
47813;DHT22;34221;45.296;9.516;2023-12-20T00:15:00;3.70;99.90
47813;DHT22;34221;45.296;9.516;2023-12-20T00:15:15;3.70;99.90
47813;DHT22;34221;45.296;9.516;2023-12-20T00:15:29;3.60;99.90
47813;DHT22;34221;45.296;9.516;2023-12-20T00:15:44;3.60;99.90
47813;DHT22;34221;45.296;9.516;2023-12-20T00:15:59;3.60;99.90
47813;DHT22;34221;45.296;9.516;2023-12-20T00:16:14;3.60;99.90
47813;DHT22;34221;45.296;9.516;2023-12-20T00:16:29;3.50;99.90
47813;DHT22;34221;45.296;9.516;2023-12-20T00:16:46;3.60;99.90
47813;DHT22;34221;45.296;9.516;2023-12-20T00:17:01;3.60;99.90
47813;DHT22;34221;45.296;9.516;2023-12-20T00:17:16;3.50;99.90
47813;DHT22;34221;45.296;9.516;2023-12-20T00:17:31;3.50;99.90
47813;DHT22;34221;45.296;9.516;2023-12-20T00:17:46;3.60;99.90
47813;DHT22;34221;45.296;9.516;2023-12-20T00:18:01;3.50;99.90
47813;DHT22;34221;45.296;9.516;2023-12-20T00:18:16;3.50;99.90
47813;DHT22;34221;45.296;9.516;2023-12-20T00:18:31;3.50;99.90
47813;DHT22;34221;45.296;9.516;2023-12-20T00:18:46;3.50;99.90
47813;DHT22;34221;45.296;9.516;2023-12-20T00:19:01;3.50;99.90
47813;DHT22;34221;45.296;9.516;2023-12-20T00:19:16;3.50;99.90
47813;DHT22;34221;45.296;9.516;2023-12-20T00:19:31;3.40;99.90
47813;DHT22;34221;45.296;9.516;2023-12-20T00:19:46;3.40;99.90
47813;DHT22;34221;45.296;9.516;2023-12-20T00:20:01;3.40;99.90
47813;DHT22;34221;45.296;9.516;2023-12-20T00:20:16;3.50;99.90
47813;DHT22;34221;45.296;9.516;2023-12-20T00:20:31;3.40;99.90
47813;DHT22;34221;45.296;9.516;2023-12-20T00:20:46;3.40;99.90
47813;DHT22;34221;45.296;9.516;2023-12-20T00:21:01;3.40;99.90
47813;DHT22;34221;45.296;9.516;2023-12-20T00:21:16;3.40;99.90
47813;DHT22;34221;45.296;9.516;2023-12-20T00:21:31;3.40;99.90
47813;DHT22;34221;45.296;9.516;2023-12-20T00:21:45;3.40;99.90
47813;DHT22;34221;45.296;9.516;2023-12-20T00:22:00;3.50;99.90
47813;DHT22;34221;45.296;9.516;2023-12-20T00:22:16;3.40;99.90
47813;DHT22;34221;45.296;9.516;2023-12-20T00:22:31;3.40;99.90
47813;DHT22;34221;45.296;9.516;2023-12-20T00:22:45;3.40;99.90
47813;DHT22;34221;45.296;9.516;2023-12-20T00:23:01;3.40;99.90
47813;DHT22;34221;45.296;9.516;2023-12-20T00:23:17;3.50;99.90
47813;DHT22;34221;45.296;9.516;2023-12-20T00:23:32;3.40;99.90
47813;DHT22;34221;45.296;9.516;2023-12-20T00:23:46;3.50;99.90
47813;DHT22;34221;45.296;9.516;2023-12-20T00:24:01;3.40;99.90
47813;DHT22;34221;45.296;9.516;2023-12-20T00:24:16;3.50;99.90
47813;DHT22;34221;45.296;9.516;2023-12-20T00:24:32;3.40;99.90
47813;DHT22;34221;45.296;9.516;2023-12-20T00:24:47;3.50;99.90
47813;DHT22;34221;45.296;9.516;2023-12-20T00:25:02;3.40;99.90
47813;DHT22;34221;45.296;9.516;2023-12-20T00:25:16;3.40;99.90
47813;DHT22;34221;45.296;9.516;2023-12-20T00:25:32;3.40;99.90
47813;DHT22;34221;45.296;9.516;2023-12-20T00:25:47;3.40;99.90
47813;DHT22;34221;45.296;9.516;2023-12-20T00:26:02;3.50;99.90
47813;DHT22;34221;45.296;9.516;2023-12-20T00:26:17;3.40;99.90
47813;DHT22;34221;45.296;9.516;2023-12-20T00:26:32;3.50;99.90
47813;DHT22;34221;45.296;9.516;2023-12-20T00:26:47;3.50;99.90
47813;DHT22;34221;45.296;9.516;2023-12-20T00:27:02;3.50;99.90
47813;DHT22;34221;45.296;9.516;2023-12-20T00:27:17;3.40;99.90
47813;DHT22;34221;45.296;9.516;2023-12-20T00:27:32;3.40;99.90
47813;DHT22;34221;45.296;9.516;2023-12-20T00:27:46;3.50;99.90
47813;DHT22;34221;45.296;9.516;2023-12-20T00:28:02;3.50;99.90
47813;DHT22;34221;45.296;9.516;2023-12-20T00:28:17;3.40;99.90
47813;DHT22;34221;45.296;9.516;2023-12-20T00:28:34;3.40;99.90
47813;DHT22;34221;45.296;9.516;2023-12-20T00:28:49;3.40;99.90
47813;DHT22;34221;45.296;9.516;2023-12-20T00:29:04;3.40;99.90
47813;DHT22;34221;45.296;9.516;2023-12-20T00:29:19;3.40;99.90
47813;DHT22;34221;45.296;9.516;2023-12-20T00:29:34;3.40;99.90
47813;DHT22;34221;45.296;9.516;2023-12-20T00:29:49;3.30;99.90
47813;DHT22;34221;45.296;9.516;2023-12-20T00:30:05;3.40;99.90
47813;DHT22;34221;45.296;9.516;2023-12-20T00:30:20;3.40;99.90
47813;DHT22;34221;45.296;9.516;2023-12-20T00:30:35;3.40;99.90
47813;DHT22;34221;45.296;9.516;2023-12-20T00:30:50;3.40;99.90
47813;DHT22;34221;45.296;9.516;2023-12-20T00:31:05;3.40;99.90
47813;DHT22;34221;45.296;9.516;2023-12-20T00:31:20;3.40;99.90
47813;DHT22;34221;45.296;9.516;2023-12-20T00:31:35;3.40;99.90
47813;DHT22;34221;45.296;9.516;2023-12-20T00:31:50;3.40;99.90
47813;DHT22;34221;45.296;9.516;2023-12-20T00:32:05;3.40;99.90
47813;DHT22;34221;45.296;9.516;2023-12-20T00:32:20;3.40;99.90
47813;DHT22;34221;45.296;9.516;2023-12-20T00:32:35;3.40;99.90
47813;DHT22;34221;45.296;9.516;2023-12-20T00:32:50;3.40;99.90
47813;DHT22;34221;45.296;9.516;2023-12-20T00:33:05;3.40;99.90
47813;DHT22;34221;45.296;9.516;2023-12-20T00:33:20;3.40;99.90
47813;DHT22;34221;45.296;9.516;2023-12-20T00:33:35;3.40;99.90
47813;DHT22;34221;45.296;9.516;2023-12-20T00:33:50;3.50;99.90
47813;DHT22;34221;45.296;9.516;2023-12-20T00:34:05;3.40;99.90
47813;DHT22;34221;45.296;9.516;2023-12-20T00:34:20;3.40;99.90
47813;DHT22;34221;45.296;9.516;2023-12-20T00:34:35;3.50;99.90
47813;DHT22;34221;45.296;9.516;2023-12-20T00:34:50;3.40;99.90
47813;DHT22;34221;45.296;9.516;2023-12-20T00:35:05;3.40;99.90
47813;DHT22;34221;45.296;9.516;2023-12-20T00:35:21;3.40;99.90
47813;DHT22;34221;45.296;9.516;2023-12-20T00:35:35;3.40;99.90
47813;DHT22;34221;45.296;9.516;2023-12-20T00:35:50;3.40;99.90
47813;DHT22;34221;45.296;9.516;2023-12-20T00:36:06;3.40;99.90
47813;DHT22;34221;45.296;9.516;2023-12-20T00:36:20;3.40;99.90
47813;DHT22;34221;45.296;9.516;2023-12-20T00:36:36;3.40;99.90
47813;DHT22;34221;45.296;9.516;2023-12-20T00:36:51;3.40;99.90
47813;DHT22;34221;45.296;9.516;2023-12-20T00:37:06;3.40;99.90
47813;DHT22;34221;45.296;9.516;2023-12-20T00:37:21;3.50;99.90
47813;DHT22;34221;45.296;9.516;2023-12-20T00:37:36;3.50;99.90
47813;DHT22;34221;45.296;9.516;2023-12-20T00:37:51;3.50;99.90
47813;DHT22;34221;45.296;9.516;2023-12-20T00:38:06;3.50;99.90
47813;DHT22;34221;45.296;9.516;2023-12-20T00:38:21;3.50;99.90
47813;DHT22;34221;45.296;9.516;2023-12-20T00:38:37;3.50;99.90
47813;DHT22;34221;45.296;9.516;2023-12-20T00:38:52;3.60;99.90
47813;DHT22;34221;45.296;9.516;2023-12-20T00:39:07;3.50;99.90
47813;DHT22;34221;45.296;9.516;2023-12-20T00:39:22;3.50;99.90
47813;DHT22;34221;45.296;9.516;2023-12-20T00:39:37;3.50;99.90
47813;DHT22;34221;45.296;9.516;2023-12-20T00:39:52;3.60;99.90
47813;DHT22;34221;45.296;9.516;2023-12-20T00:40:07;3.60;99.90
47813;DHT22;34221;45.296;9.516;2023-12-20T00:40:22;3.60;99.90
47813;DHT22;34221;45.296;9.516;2023-12-20T00:40:37;3.60;99.90
47813;DHT22;34221;45.296;9.516;2023-12-20T00:40:52;3.60;99.90
47813;DHT22;34221;45.296;9.516;2023-12-20T00:41:07;3.60;99.90
47813;DHT22;34221;45.296;9.516;2023-12-20T00:41:22;3.60;99.90
47813;DHT22;34221;45.296;9.516;2023-12-20T00:41:37;3.70;99.90
47813;DHT22;34221;45.296;9.516;2023-12-20T00:41:52;3.70;99.90
47813;DHT22;34221;45.296;9.516;2023-12-20T00:42:07;3.60;99.90
47813;DHT22;34221;45.296;9.516;2023-12-20T00:42:21;3.70;99.90
47813;DHT22;34221;45.296;9.516;2023-12-20T00:42:36;3.60;99.90
47813;DHT22;34221;45.296;9.516;2023-12-20T00:42:51;3.60;99.90
47813;DHT22;34221;45.296;9.516;2023-12-20T00:43:06;3.70;99.90
47813;DHT22;34221;45.296;9.516;2023-12-20T00:43:21;3.70;99.90
47813;DHT22;34221;45.296;9.516;2023-12-20T00:43:36;3.70;99.90
47813;DHT22;34221;45.296;9.516;2023-12-20T00:43:51;3.70;99.90
47813;DHT22;34221;45.296;9.516;2023-12-20T00:44:06;3.70;99.90
47813;DHT22;34221;45.296;9.516;2023-12-20T00:44:21;3.70;99.90
47813;DHT22;34221;45.296;9.516;2023-12-20T00:44:36;3.70;99.90
47813;DHT22;34221;45.296;9.516;2023-12-20T00:44:51;3.80;99.90
47813;DHT22;34221;45.296;9.516;2023-12-20T00:45:06;3.80;99.90
47813;DHT22;34221;45.296;9.516;2023-12-20T00:45:21;3.80;99.90
47813;DHT22;34221;45.296;9.516;2023-12-20T00:45:36;3.70;99.90
47813;DHT22;34221;45.296;9.516;2023-12-20T00:45:51;3.70;99.90
47813;DHT22;34221;45.296;9.516;2023-12-20T00:46:06;3.70;99.90
47813;DHT22;34221;45.296;9.516;2023-12-20T00:46:21;3.70;99.90
47813;DHT22;34221;45.296;9.516;2023-12-20T00:46:36;3.70;99.90
47813;DHT22;34221;45.296;9.516;2023-12-20T00:46:51;3.70;99.90
47813;DHT22;34221;45.296;9.516;2023-12-20T00:47:06;3.70;99.90
47813;DHT22;34221;45.296;9.516;2023-12-20T00:47:21;3.70;99.90
47813;DHT22;34221;45.296;9.516;2023-12-20T00:47:36;3.70;99.90
47813;DHT22;34221;45.296;9.516;2023-12-20T00:47:51;3.70;99.90
47813;DHT22;34221;45.296;9.516;2023-12-20T00:48:06;3.60;99.90
47813;DHT22;34221;45.296;9.516;2023-12-20T00:48:22;3.70;99.90
47813;DHT22;34221;45.296;9.516;2023-12-20T00:48:36;3.70;99.90
47813;DHT22;34221;45.296;9.516;2023-12-20T00:48:52;3.70;99.90
47813;DHT22;34221;45.296;9.516;2023-12-20T00:49:07;3.70;99.90
47813;DHT22;34221;45.296;9.516;2023-12-20T00:49:22;3.70;99.90
47813;DHT22;34221;45.296;9.516;2023-12-20T00:49:36;3.70;99.90
47813;DHT22;34221;45.296;9.516;2023-12-20T00:49:51;3.60;99.90
47813;DHT22;34221;45.296;9.516;2023-12-20T00:50:07;3.60;99.90
47813;DHT22;34221;45.296;9.516;2023-12-20T00:50:22;3.70;99.90
47813;DHT22;34221;45.296;9.516;2023-12-20T00:50:37;3.70;99.90
47813;DHT22;34221;45.296;9.516;2023-12-20T00:50:52;3.60;99.90
47813;DHT22;34221;45.296;9.516;2023-12-20T00:51:07;3.60;99.90
47813;DHT22;34221;45.296;9.516;2023-12-20T00:51:23;3.60;99.90
47813;DHT22;34221;45.296;9.516;2023-12-20T00:51:37;3.50;99.90
47813;DHT22;34221;45.296;9.516;2023-12-20T00:51:52;3.50;99.90
47813;DHT22;34221;45.296;9.516;2023-12-20T00:52:07;3.50;99.90
47813;DHT22;34221;45.296;9.516;2023-12-20T00:52:22;3.50;99.90
47813;DHT22;34221;45.296;9.516;2023-12-20T00:52:37;3.50;99.90
47813;DHT22;34221;45.296;9.516;2023-12-20T00:52:52;3.50;99.90
47813;DHT22;34221;45.296;9.516;2023-12-20T00:53:09;3.50;99.90
47813;DHT22;34221;45.296;9.516;2023-12-20T00:53:24;3.50;99.90
47813;DHT22;34221;45.296;9.516;2023-12-20T00:53:39;3.50;99.90
47813;DHT22;34221;45.296;9.516;2023-12-20T00:53:54;3.50;99.90
47813;DHT22;34221;45.296;9.516;2023-12-20T00:54:09;3.50;99.90
47813;DHT22;34221;45.296;9.516;2023-12-20T00:54:24;3.50;99.90
47813;DHT22;34221;45.296;9.516;2023-12-20T00:54:39;3.50;99.90
47813;DHT22;34221;45.296;9.516;2023-12-20T00:54:54;3.50;99.90
47813;DHT22;34221;45.296;9.516;2023-12-20T00:55:09;3.50;99.90
47813;DHT22;34221;45.296;9.516;2023-12-20T00:55:24;3.50;99.90
47813;DHT22;34221;45.296;9.516;2023-12-20T00:55:39;3.60;99.90
47813;DHT22;34221;45.296;9.516;2023-12-20T00:55:53;3.50;99.90
47813;DHT22;34221;45.296;9.516;2023-12-20T00:56:08;3.50;99.90
47813;DHT22;34221;45.296;9.516;2023-12-20T00:56:23;3.50;99.90
47813;DHT22;34221;45.296;9.516;2023-12-20T00:56:38;3.50;99.90
47813;DHT22;34221;45.296;9.516;2023-12-20T00:56:53;3.50;99.90
47813;DHT22;34221;45.296;9.516;2023-12-20T00:57:08;3.50;99.90
47813;DHT22;34221;45.296;9.516;2023-12-20T00:57:23;3.50;99.90
47813;DHT22;34221;45.296;9.516;2023-12-20T00:57:38;3.50;99.90
47813;DHT22;34221;45.296;9.516;2023-12-20T00:57:53;3.60;99.90
47813;DHT22;34221;45.296;9.516;2023-12-20T00:58:08;3.50;99.90
47813;DHT22;34221;45.296;9.516;2023-12-20T00:58:23;3.50;99.90
47813;DHT22;34221;45.296;9.516;2023-12-20T00:58:38;3.50;99.90
47813;DHT22;34221;45.296;9.516;2023-12-20T00:58:53;3.60;99.90
47813;DHT22;34221;45.296;9.516;2023-12-20T00:59:08;3.60;99.90
47813;DHT22;34221;45.296;9.516;2023-12-20T00:59:23;3.60;99.90
47813;DHT22;34221;45.296;9.516;2023-12-20T00:59:37;3.60;99.90
47813;DHT22;34221;45.296;9.516;2023-12-20T00:59:52;3.60;99.90
47813;DHT22;34221;45.296;9.516;2023-12-20T01:00:08;3.60;99.90
47813;DHT22;34221;45.296;9.516;2023-12-20T01:00:27;3.60;99.90
47813;DHT22;34221;45.296;9.516;2023-12-20T01:00:42;3.60;99.90
47813;DHT22;34221;45.296;9.516;2023-12-20T01:00:58;3.60;99.90
47813;DHT22;34221;45.296;9.516;2023-12-20T01:01:13;3.60;99.90
47813;DHT22;34221;45.296;9.516;2023-12-20T01:01:28;3.60;99.90
47813;DHT22;34221;45.296;9.516;2023-12-20T01:01:43;3.70;99.90
47813;DHT22;34221;45.296;9.516;2023-12-20T01:01:58;3.70;99.90
47813;DHT22;34221;45.296;9.516;2023-12-20T01:02:13;3.70;99.90
47813;DHT22;34221;45.296;9.516;2023-12-20T01:02:28;3.70;99.90
47813;DHT22;34221;45.296;9.516;2023-12-20T01:02:42;3.70;99.90
47813;DHT22;34221;45.296;9.516;2023-12-20T01:02:57;3.70;99.90
47813;DHT22;34221;45.296;9.516;2023-12-20T01:03:12;3.70;99.90
47813;DHT22;34221;45.296;9.516;2023-12-20T01:03:28;3.80;99.90
47813;DHT22;34221;45.296;9.516;2023-12-20T01:03:43;3.80;99.90
47813;DHT22;34221;45.296;9.516;2023-12-20T01:03:58;3.80;99.90
47813;DHT22;34221;45.296;9.516;2023-12-20T01:04:13;3.80;99.90
47813;DHT22;34221;45.296;9.516;2023-12-20T01:04:48;3.80;99.90
47813;DHT22;34221;45.296;9.516;2023-12-20T01:05:04;3.80;99.90
47813;DHT22;34221;45.296;9.516;2023-12-20T01:05:19;3.80;99.90
47813;DHT22;34221;45.296;9.516;2023-12-20T01:05:34;3.80;99.90
47813;DHT22;34221;45.296;9.516;2023-12-20T01:05:49;3.80;99.90
47813;DHT22;34221;45.296;9.516;2023-12-20T01:06:04;3.80;99.90
47813;DHT22;34221;45.296;9.516;2023-12-20T01:06:19;3.90;99.90
47813;DHT22;34221;45.296;9.516;2023-12-20T01:06:34;3.80;99.90
47813;DHT22;34221;45.296;9.516;2023-12-20T01:06:49;3.80;99.90
47813;DHT22;34221;45.296;9.516;2023-12-20T01:07:04;3.90;99.90
47813;DHT22;34221;45.296;9.516;2023-12-20T01:07:19;3.90;99.90
47813;DHT22;34221;45.296;9.516;2023-12-20T01:07:34;3.90;99.90
47813;DHT22;34221;45.296;9.516;2023-12-20T01:07:49;3.80;99.90
47813;DHT22;34221;45.296;9.516;2023-12-20T01:08:04;3.80;99.90
47813;DHT22;34221;45.296;9.516;2023-12-20T01:08:19;3.90;99.90
47813;DHT22;34221;45.296;9.516;2023-12-20T01:08:34;3.80;99.90
47813;DHT22;34221;45.296;9.516;2023-12-20T01:08:49;3.90;99.90
47813;DHT22;34221;45.296;9.516;2023-12-20T01:09:04;3.80;99.90
47813;DHT22;34221;45.296;9.516;2023-12-20T01:09:19;3.90;99.90
47813;DHT22;34221;45.296;9.516;2023-12-20T01:09:37;3.80;99.90
47813;DHT22;34221;45.296;9.516;2023-12-20T01:09:52;3.90;99.90
47813;DHT22;34221;45.296;9.516;2023-12-20T01:10:08;3.80;99.90
47813;DHT22;34221;45.296;9.516;2023-12-20T01:10:23;3.80;99.90
47813;DHT22;34221;45.296;9.516;2023-12-20T01:10:38;3.80;99.90
47813;DHT22;34221;45.296;9.516;2023-12-20T01:10:53;3.90;99.90
47813;DHT22;34221;45.296;9.516;2023-12-20T01:11:08;3.90;99.90
47813;DHT22;34221;45.296;9.516;2023-12-20T01:11:23;3.90;99.90
47813;DHT22;34221;45.296;9.516;2023-12-20T01:11:37;3.80;99.90
47813;DHT22;34221;45.296;9.516;2023-12-20T01:11:53;3.90;99.90
47813;DHT22;34221;45.296;9.516;2023-12-20T01:12:08;3.90;99.90
47813;DHT22;34221;45.296;9.516;2023-12-20T01:12:23;3.90;99.90
47813;DHT22;34221;45.296;9.516;2023-12-20T01:12:37;3.90;99.90
47813;DHT22;34221;45.296;9.516;2023-12-20T01:12:52;3.90;99.90
47813;DHT22;34221;45.296;9.516;2023-12-20T01:13:07;3.90;99.90
47813;DHT22;34221;45.296;9.516;2023-12-20T01:13:23;3.90;99.90
47813;DHT22;34221;45.296;9.516;2023-12-20T01:13:38;3.90;99.90
47813;DHT22;34221;45.296;9.516;2023-12-20T01:13:53;3.90;99.90
47813;DHT22;34221;45.296;9.516;2023-12-20T01:14:08;4.00;99.90
47813;DHT22;34221;45.296;9.516;2023-12-20T01:14:23;3.90;99.90
47813;DHT22;34221;45.296;9.516;2023-12-20T01:14:38;3.90;99.90
47813;DHT22;34221;45.296;9.516;2023-12-20T01:14:54;3.90;99.90
47813;DHT22;34221;45.296;9.516;2023-12-20T01:15:09;4.00;99.90
47813;DHT22;34221;45.296;9.516;2023-12-20T01:15:24;3.90;99.90
47813;DHT22;34221;45.296;9.516;2023-12-20T01:15:39;4.00;99.90
47813;DHT22;34221;45.296;9.516;2023-12-20T01:15:54;3.90;99.90
47813;DHT22;34221;45.296;9.516;2023-12-20T01:16:10;4.00;99.90
47813;DHT22;34221;45.296;9.516;2023-12-20T01:16:26;4.00;99.90
47813;DHT22;34221;45.296;9.516;2023-12-20T01:16:41;4.00;99.90
47813;DHT22;34221;45.296;9.516;2023-12-20T01:16:56;4.00;99.90
47813;DHT22;34221;45.296;9.516;2023-12-20T01:17:11;4.00;99.90
47813;DHT22;34221;45.296;9.516;2023-12-20T01:17:27;4.10;99.90
47813;DHT22;34221;45.296;9.516;2023-12-20T01:17:42;4.00;99.90
47813;DHT22;34221;45.296;9.516;2023-12-20T01:17:56;4.00;99.90
47813;DHT22;34221;45.296;9.516;2023-12-20T01:18:14;4.10;99.90
47813;DHT22;34221;45.296;9.516;2023-12-20T01:18:29;4.10;99.90
47813;DHT22;34221;45.296;9.516;2023-12-20T01:18:44;4.00;99.90
47813;DHT22;34221;45.296;9.516;2023-12-20T01:18:59;4.00;99.90
47813;DHT22;34221;45.296;9.516;2023-12-20T01:19:14;4.00;99.90
47813;DHT22;34221;45.296;9.516;2023-12-20T01:19:29;4.00;99.90
47813;DHT22;34221;45.296;9.516;2023-12-20T01:19:44;4.00;99.90
47813;DHT22;34221;45.296;9.516;2023-12-20T01:19:59;4.00;99.90
47813;DHT22;34221;45.296;9.516;2023-12-20T01:20:14;4.00;99.90
47813;DHT22;34221;45.296;9.516;2023-12-20T01:20:29;4.00;99.90
47813;DHT22;34221;45.296;9.516;2023-12-20T01:20:44;4.00;99.90
47813;DHT22;34221;45.296;9.516;2023-12-20T01:21:02;4.00;99.90
47813;DHT22;34221;45.296;9.516;2023-12-20T01:21:18;4.00;99.90
47813;DHT22;34221;45.296;9.516;2023-12-20T01:21:33;3.90;99.90
47813;DHT22;34221;45.296;9.516;2023-12-20T01:21:48;3.90;99.90
47813;DHT22;34221;45.296;9.516;2023-12-20T01:22:03;4.00;99.90
47813;DHT22;34221;45.296;9.516;2023-12-20T01:22:18;3.90;99.90
47813;DHT22;34221;45.296;9.516;2023-12-20T01:22:33;3.90;99.90
47813;DHT22;34221;45.296;9.516;2023-12-20T01:22:50;3.90;99.90
47813;DHT22;34221;45.296;9.516;2023-12-20T01:23:05;3.90;99.90
47813;DHT22;34221;45.296;9.516;2023-12-20T01:23:20;3.90;99.90
47813;DHT22;34221;45.296;9.516;2023-12-20T01:23:35;3.90;99.90
47813;DHT22;34221;45.296;9.516;2023-12-20T01:23:49;3.90;99.90
47813;DHT22;34221;45.296;9.516;2023-12-20T01:24:04;3.80;99.90
47813;DHT22;34221;45.296;9.516;2023-12-20T01:24:19;3.90;99.90
47813;DHT22;34221;45.296;9.516;2023-12-20T01:24:34;3.80;99.90
47813;DHT22;34221;45.296;9.516;2023-12-20T01:24:49;3.80;99.90
47813;DHT22;34221;45.296;9.516;2023-12-20T01:25:04;3.70;99.90
47813;DHT22;34221;45.296;9.516;2023-12-20T01:25:19;3.70;99.90
47813;DHT22;34221;45.296;9.516;2023-12-20T01:25:34;3.60;99.90
47813;DHT22;34221;45.296;9.516;2023-12-20T01:25:49;3.60;99.90
47813;DHT22;34221;45.296;9.516;2023-12-20T01:26:04;3.60;99.90
47813;DHT22;34221;45.296;9.516;2023-12-20T01:26:20;3.50;99.90
47813;DHT22;34221;45.296;9.516;2023-12-20T01:26:35;3.50;99.90
47813;DHT22;34221;45.296;9.516;2023-12-20T01:26:49;3.50;99.90
47813;DHT22;34221;45.296;9.516;2023-12-20T01:27:04;3.50;99.90
47813;DHT22;34221;45.296;9.516;2023-12-20T01:27:19;3.50;99.90
47813;DHT22;34221;45.296;9.516;2023-12-20T01:27:34;3.40;99.90
47813;DHT22;34221;45.296;9.516;2023-12-20T01:27:50;3.40;99.90
47813;DHT22;34221;45.296;9.516;2023-12-20T01:28:05;3.30;99.90
47813;DHT22;34221;45.296;9.516;2023-12-20T01:28:20;3.30;99.90
47813;DHT22;34221;45.296;9.516;2023-12-20T01:28:35;3.30;99.90
47813;DHT22;34221;45.296;9.516;2023-12-20T01:28:50;3.30;99.90
47813;DHT22;34221;45.296;9.516;2023-12-20T01:29:05;3.20;99.90
47813;DHT22;34221;45.296;9.516;2023-12-20T01:29:20;3.20;99.90
47813;DHT22;34221;45.296;9.516;2023-12-20T01:29:35;3.10;99.90
47813;DHT22;34221;45.296;9.516;2023-12-20T01:29:50;3.10;99.90
47813;DHT22;34221;45.296;9.516;2023-12-20T01:30:05;3.10;99.90
47813;DHT22;34221;45.296;9.516;2023-12-20T01:30:20;3.10;99.90
47813;DHT22;34221;45.296;9.516;2023-12-20T01:30:35;3.00;99.90
47813;DHT22;34221;45.296;9.516;2023-12-20T01:30:50;3.00;99.90
47813;DHT22;34221;45.296;9.516;2023-12-20T01:31:05;3.00;99.90
47813;DHT22;34221;45.296;9.516;2023-12-20T01:31:20;2.90;99.90
47813;DHT22;34221;45.296;9.516;2023-12-20T01:31:35;2.90;99.90
47813;DHT22;34221;45.296;9.516;2023-12-20T01:31:50;2.90;99.90
47813;DHT22;34221;45.296;9.516;2023-12-20T01:32:05;2.80;99.90
47813;DHT22;34221;45.296;9.516;2023-12-20T01:32:21;2.80;99.90
47813;DHT22;34221;45.296;9.516;2023-12-20T01:32:35;2.80;99.90
47813;DHT22;34221;45.296;9.516;2023-12-20T01:32:50;2.70;99.90
47813;DHT22;34221;45.296;9.516;2023-12-20T01:33:05;2.70;99.90
47813;DHT22;34221;45.296;9.516;2023-12-20T01:33:20;2.70;99.90
47813;DHT22;34221;45.296;9.516;2023-12-20T01:33:35;2.70;99.90
47813;DHT22;34221;45.296;9.516;2023-12-20T01:33:50;2.70;99.90
47813;DHT22;34221;45.296;9.516;2023-12-20T01:34:05;2.70;99.90
47813;DHT22;34221;45.296;9.516;2023-12-20T01:34:20;2.70;99.90
47813;DHT22;34221;45.296;9.516;2023-12-20T01:34:35;2.70;99.90
47813;DHT22;34221;45.296;9.516;2023-12-20T01:34:50;2.70;99.90
47813;DHT22;34221;45.296;9.516;2023-12-20T01:35:05;2.70;99.90
47813;DHT22;34221;45.296;9.516;2023-12-20T01:35:21;2.70;99.90
47813;DHT22;34221;45.296;9.516;2023-12-20T01:35:35;2.70;99.90
47813;DHT22;34221;45.296;9.516;2023-12-20T01:35:50;2.70;99.90
47813;DHT22;34221;45.296;9.516;2023-12-20T01:36:06;2.70;99.90
47813;DHT22;34221;45.296;9.516;2023-12-20T01:36:20;2.70;99.90
47813;DHT22;34221;45.296;9.516;2023-12-20T01:36:35;2.70;99.90
47813;DHT22;34221;45.296;9.516;2023-12-20T01:36:50;2.70;99.90
47813;DHT22;34221;45.296;9.516;2023-12-20T01:37:05;2.70;99.90
47813;DHT22;34221;45.296;9.516;2023-12-20T01:37:20;2.70;99.90